sensor_id;sensor_type;location;lat;lon;timestamp;pressure;altitude;pressure_sealevel;temperature;humidity
15260;BME280;34462;51.368;12.364;2023-03-20T00:01:12;19663.44;;;-141.84;77.37
15260;BME280;34462;51.368;12.364;2023-03-20T00:03:41;19620.78;;;-141.84;77.69
15260;BME280;34462;51.368;12.364;2023-03-20T00:06:15;19630.94;;;-141.84;77.67
15260;BME280;34462;51.368;12.364;2023-03-20T00:08:47;19618.75;;;-141.84;77.62
15260;BME280;34462;51.368;12.364;2023-03-20T00:11:29;19645.16;;;-141.84;77.65
15260;BME280;34462;51.368;12.364;2023-03-20T00:14:01;19639.06;;;-141.84;77.89
15260;BME280;34462;51.368;12.364;2023-03-20T00:16:35;19675.63;;;-141.84;77.63
15260;BME280;34462;51.368;12.364;2023-03-20T00:19:05;19600.44;;;-141.84;77.50
15260;BME280;34462;51.368;12.364;2023-03-20T00:21:34;19655.31;;;-141.84;77.51
15260;BME280;34462;51.368;12.364;2023-03-20T00:24:04;19606.53;;;-141.84;77.60
15260;BME280;34462;51.368;12.364;2023-03-20T00:26:34;19624.84;;;-141.84;77.95
15260;BME280;34462;51.368;12.364;2023-03-20T00:29:05;19614.66;;;-141.84;77.78
15260;BME280;34462;51.368;12.364;2023-03-20T00:31:36;19628.91;;;-141.84;77.95
15260;BME280;34462;51.368;12.364;2023-03-20T00:34:11;19630.94;;;-141.84;78.45
15260;BME280;34462;51.368;12.364;2023-03-20T00:36:40;19574.03;;;-141.84;78.92
15260;BME280;34462;51.368;12.364;2023-03-20T00:39:09;19578.09;;;-141.84;79.21
15260;BME280;34462;51.368;12.364;2023-03-20T00:41:43;19586.22;;;-141.84;79.69
15260;BME280;34462;51.368;12.364;2023-03-20T00:44:21;19549.63;;;-141.84;80.19
15260;BME280;34462;51.368;12.364;2023-03-20T00:46:54;19555.75;;;-141.84;80.48
15260;BME280;34462;51.368;12.364;2023-03-20T00:49:27;19551.69;;;-141.84;80.80
15260;BME280;34462;51.368;12.364;2023-03-20T00:51:55;19549.63;;;-141.84;80.88
15260;BME280;34462;51.368;12.364;2023-03-20T00:54:25;19553.72;;;-141.84;81.40
15260;BME280;34462;51.368;12.364;2023-03-20T00:56:56;19525.25;;;-141.84;81.41
15260;BME280;34462;51.368;12.364;2023-03-20T00:59:30;19533.38;;;-141.84;81.55
15260;BME280;34462;51.368;12.364;2023-03-20T01:02:00;19527.28;;;-141.84;81.49
15260;BME280;34462;51.368;12.364;2023-03-20T01:04:35;19533.38;;;-141.84;81.75
15260;BME280;34462;51.368;12.364;2023-03-20T01:07:06;19551.69;;;-141.84;81.41
15260;BME280;34462;51.368;12.364;2023-03-20T01:09:36;19555.75;;;-141.84;81.27
15260;BME280;34462;51.368;12.364;2023-03-20T01:12:05;19569.97;;;-141.84;81.05
15260;BME280;34462;51.368;12.364;2023-03-20T01:14:34;19563.88;;;-141.84;80.92
15260;BME280;34462;51.368;12.364;2023-03-20T01:17:02;19561.84;;;-141.84;80.30
15260;BME280;34462;51.368;12.364;2023-03-20T01:19:30;19580.13;;;-141.84;80.30
15260;BME280;34462;51.368;12.364;2023-03-20T01:21:58;19561.84;;;-141.84;79.97
15260;BME280;34462;51.368;12.364;2023-03-20T01:24:28;19608.56;;;-141.84;79.93
15260;BME280;34462;51.368;12.364;2023-03-20T01:26:58;19578.09;;;-141.84;79.71
15260;BME280;34462;51.368;12.364;2023-03-20T01:29:30;19549.63;;;-141.84;79.74
15260;BME280;34462;51.368;12.364;2023-03-20T01:31:58;19586.22;;;-141.84;79.83
15260;BME280;34462;51.368;12.364;2023-03-20T01:34:26;19561.84;;;-141.84;79.89
15260;BME280;34462;51.368;12.364;2023-03-20T01:36:56;19555.75;;;-141.84;79.76
15260;BME280;34462;51.368;12.364;2023-03-20T01:39:32;19572.00;;;-141.84;79.80
15260;BME280;34462;51.368;12.364;2023-03-20T01:42:05;19565.91;;;-141.84;79.82
15260;BME280;34462;51.368;12.364;2023-03-20T01:44:35;19574.03;;;-141.84;79.79
15260;BME280;34462;51.368;12.364;2023-03-20T01:47:14;19567.94;;;-141.84;80.08
15260;BME280;34462;51.368;12.364;2023-03-20T01:50:21;19565.91;;;-141.84;80.30
15260;BME280;34462;51.368;12.364;2023-03-20T01:52:56;19563.88;;;-141.84;80.53
15260;BME280;34462;51.368;12.364;2023-03-20T01:55:26;19549.63;;;-141.84;80.68
15260;BME280;34462;51.368;12.364;2023-03-20T01:58:00;19529.31;;;-141.84;80.12
15260;BME280;34462;51.368;12.364;2023-03-20T02:00:31;19561.84;;;-141.84;80.68
15260;BME280;34462;51.368;12.364;2023-03-20T02:03:00;19537.44;;;-141.84;80.64
15260;BME280;34462;51.368;12.364;2023-03-20T02:05:29;19549.63;;;-141.84;81.05
15260;BME280;34462;51.368;12.364;2023-03-20T02:08:10;19547.59;;;-141.84;81.35
15260;BME280;34462;51.368;12.364;2023-03-20T02:10:44;19496.81;;;-141.84;81.67
15260;BME280;34462;51.368;12.364;2023-03-20T02:13:15;19513.06;;;-141.84;81.53
15260;BME280;34462;51.368;12.364;2023-03-20T02:16:01;19527.28;;;-141.84;81.99
15260;BME280;34462;51.368;12.364;2023-03-20T02:18:31;19506.97;;;-141.84;81.96
15260;BME280;34462;51.368;12.364;2023-03-20T02:25:18;19517.13;;;-141.84;82.18
15260;BME280;34462;51.368;12.364;2023-03-20T02:28:22;19537.44;;;-141.84;82.06
15260;BME280;34462;51.368;12.364;2023-03-20T02:31:20;19504.94;;;-141.84;81.95
15260;BME280;34462;51.368;12.364;2023-03-20T02:34:18;19494.78;;;-141.84;82.23
15260;BME280;34462;51.368;12.364;2023-03-20T02:37:38;19545.56;;;-141.84;82.26
15260;BME280;34462;51.368;12.364;2023-03-20T02:40:24;19511.03;;;-141.84;82.28
15260;BME280;34462;51.368;12.364;2023-03-20T02:43:04;19527.28;;;-141.84;82.39
15260;BME280;34462;51.368;12.364;2023-03-20T02:45:48;19488.69;;;-141.84;81.94
15260;BME280;34462;51.368;12.364;2023-03-20T02:48:33;19521.19;;;-141.84;81.96
15260;BME280;34462;51.368;12.364;2023-03-20T02:51:11;19519.16;;;-141.84;82.12
15260;BME280;34462;51.368;12.364;2023-03-20T02:53:51;19545.56;;;-141.84;81.75
15260;BME280;34462;51.368;12.364;2023-03-20T02:56:32;19551.69;;;-141.84;81.57
15260;BME280;34462;51.368;12.364;2023-03-20T02:59:11;19553.72;;;-141.84;81.74
15260;BME280;34462;51.368;12.364;2023-03-20T03:01:48;19574.03;;;-141.84;80.82
15260;BME280;34462;51.368;12.364;2023-03-20T03:04:24;19551.69;;;-141.84;80.76
15260;BME280;34462;51.368;12.364;2023-03-20T03:06:56;19543.53;;;-141.84;80.46
15260;BME280;34462;51.368;12.364;2023-03-20T03:09:30;19561.84;;;-141.84;80.97
15260;BME280;34462;51.368;12.364;2023-03-20T03:12:06;19596.38;;;-141.84;80.76
15260;BME280;34462;51.368;12.364;2023-03-20T03:14:41;19531.34;;;-141.84;80.93
15260;BME280;34462;51.368;12.364;2023-03-20T03:17:12;19539.47;;;-141.84;81.16
15260;BME280;34462;51.368;12.364;2023-03-20T03:19:48;19535.41;;;-141.84;81.08
15260;BME280;34462;51.368;12.364;2023-03-20T03:22:18;19553.72;;;-141.84;81.15
15260;BME280;34462;51.368;12.364;2023-03-20T03:24:50;19553.72;;;-141.84;80.88
15260;BME280;34462;51.368;12.364;2023-03-20T03:27:23;19519.16;;;-141.84;80.94
15260;BME280;34462;51.368;12.364;2023-03-20T03:29:56;19504.94;;;-141.84;81.13
15260;BME280;34462;51.368;12.364;2023-03-20T03:32:29;19502.91;;;-141.84;81.17
15260;BME280;34462;51.368;12.364;2023-03-20T03:35:00;19531.34;;;-141.84;81.75
15260;BME280;34462;51.368;12.364;2023-03-20T03:37:41;19535.41;;;-141.84;81.96
15260;BME280;34462;51.368;12.364;2023-03-20T03:40:20;19519.16;;;-141.84;81.75
15260;BME280;34462;51.368;12.364;2023-03-20T03:43:00;19529.31;;;-141.84;80.99
15260;BME280;34462;51.368;12.364;2023-03-20T03:45:34;19527.28;;;-141.84;81.22
15260;BME280;34462;51.368;12.364;2023-03-20T03:48:09;19567.94;;;-141.84;80.81
15260;BME280;34462;51.368;12.364;2023-03-20T03:50:44;19551.69;;;-141.84;80.46
15260;BME280;34462;51.368;12.364;2023-03-20T03:53:18;19539.47;;;-141.84;80.81
15260;BME280;34462;51.368;12.364;2023-03-20T03:55:52;19537.44;;;-141.84;80.68
15260;BME280;34462;51.368;12.364;2023-03-20T03:58:28;19541.50;;;-141.84;80.48
15260;BME280;34462;51.368;12.364;2023-03-20T04:01:02;19545.56;;;-141.84;80.64
15260;BME280;34462;51.368;12.364;2023-03-20T04:03:36;19525.25;;;-141.84;81.10
15260;BME280;34462;51.368;12.364;2023-03-20T04:06:09;19506.97;;;-141.84;80.95
15260;BME280;34462;51.368;12.364;2023-03-20T04:08:39;19531.34;;;-141.84;81.43
15260;BME280;34462;51.368;12.364;2023-03-20T04:11:14;19525.25;;;-141.84;81.59
15260;BME280;34462;51.368;12.364;2023-03-20T04:13:45;19494.78;;;-141.84;81.84
15260;BME280;34462;51.368;12.364;2023-03-20T04:16:15;19541.50;;;-141.84;81.82
15260;BME280;34462;51.368;12.364;2023-03-20T04:18:45;19517.13;;;-141.84;81.59
15260;BME280;34462;51.368;12.364;2023-03-20T04:21:13;19533.38;;;-141.84;81.79
15260;BME280;34462;51.368;12.364;2023-03-20T04:23:42;19496.81;;;-141.84;81.70
15260;BME280;34462;51.368;12.364;2023-03-20T04:26:12;19527.28;;;-141.84;81.37
15260;BME280;34462;51.368;12.364;2023-03-20T04:28:40;19506.97;;;-141.84;81.73
15260;BME280;34462;51.368;12.364;2023-03-20T04:31:08;19488.69;;;-141.84;81.71
15260;BME280;34462;51.368;12.364;2023-03-20T04:33:37;19468.34;;;-141.84;81.59
15260;BME280;34462;51.368;12.364;2023-03-20T04:36:06;19496.81;;;-141.84;81.87
15260;BME280;34462;51.368;12.364;2023-03-20T04:38:35;19474.44;;;-141.84;82.16
15260;BME280;34462;51.368;12.364;2023-03-20T04:41:04;19500.88;;;-141.84;82.55
15260;BME280;34462;51.368;12.364;2023-03-20T04:43:34;19490.72;;;-141.84;82.24
15260;BME280;34462;51.368;12.364;2023-03-20T04:46:02;19496.81;;;-141.84;81.60
15260;BME280;34462;51.368;12.364;2023-03-20T04:48:30;19513.06;;;-141.84;81.54
15260;BME280;34462;51.368;12.364;2023-03-20T04:50:58;19543.53;;;-141.84;80.87
15260;BME280;34462;51.368;12.364;2023-03-20T04:53:27;19527.28;;;-141.84;81.11
15260;BME280;34462;51.368;12.364;2023-03-20T04:55:55;19474.44;;;-141.84;80.81
15260;BME280;34462;51.368;12.364;2023-03-20T04:58:24;19529.31;;;-141.84;80.78
15260;BME280;34462;51.368;12.364;2023-03-20T05:00:54;19502.91;;;-141.84;81.07
15260;BME280;34462;51.368;12.364;2023-03-20T05:03:22;19504.94;;;-141.84;81.11
15260;BME280;34462;51.368;12.364;2023-03-20T05:05:50;19521.19;;;-141.84;80.88
15260;BME280;34462;51.368;12.364;2023-03-20T05:08:18;19500.88;;;-141.84;81.21
15260;BME280;34462;51.368;12.364;2023-03-20T05:10:47;19517.13;;;-141.84;81.45
15260;BME280;34462;51.368;12.364;2023-03-20T05:13:15;19498.84;;;-141.84;81.77
15260;BME280;34462;51.368;12.364;2023-03-20T05:15:43;19490.72;;;-141.84;82.05
15260;BME280;34462;51.368;12.364;2023-03-20T05:18:12;19474.44;;;-141.84;82.19
15260;BME280;34462;51.368;12.364;2023-03-20T05:20:41;19476.47;;;-141.84;81.96
15260;BME280;34462;51.368;12.364;2023-03-20T05:23:09;19486.66;;;-141.84;81.84
15260;BME280;34462;51.368;12.364;2023-03-20T05:25:37;19484.59;;;-141.84;82.13
15260;BME280;34462;51.368;12.364;2023-03-20T05:28:05;19541.50;;;-141.84;82.07
15260;BME280;34462;51.368;12.364;2023-03-20T05:30:33;19472.41;;;-141.84;82.13
15260;BME280;34462;51.368;12.364;2023-03-20T05:33:02;19476.47;;;-141.84;81.91
15260;BME280;34462;51.368;12.364;2023-03-20T05:35:31;19486.66;;;-141.84;81.91
15260;BME280;34462;51.368;12.364;2023-03-20T05:38:00;19525.25;;;-141.84;81.91
15260;BME280;34462;51.368;12.364;2023-03-20T05:40:29;19502.91;;;-141.84;81.12
15260;BME280;34462;51.368;12.364;2023-03-20T05:42:57;19494.78;;;-141.84;81.40
15260;BME280;34462;51.368;12.364;2023-03-20T05:45:25;19498.84;;;-141.84;81.31
15260;BME280;34462;51.368;12.364;2023-03-20T05:47:53;19511.03;;;-141.84;81.44
15260;BME280;34462;51.368;12.364;2023-03-20T05:50:22;19527.28;;;-141.84;81.01
15260;BME280;34462;51.368;12.364;2023-03-20T05:52:51;19551.69;;;-141.84;80.42
15260;BME280;34462;51.368;12.364;2023-03-20T05:55:19;19588.25;;;-141.84;79.05
15260;BME280;34462;51.368;12.364;2023-03-20T05:57:47;19555.75;;;-141.84;78.66
15260;BME280;34462;51.368;12.364;2023-03-20T06:00:17;19588.25;;;-141.84;79.42
15260;BME280;34462;51.368;12.364;2023-03-20T06:02:45;19565.91;;;-141.84;78.74
15260;BME280;34462;51.368;12.364;2023-03-20T06:05:14;19569.97;;;-141.84;78.78
15260;BME280;34462;51.368;12.364;2023-03-20T06:07:42;19567.94;;;-141.84;79.37
15260;BME280;34462;51.368;12.364;2023-03-20T06:10:12;19610.59;;;-141.84;78.46
15260;BME280;34462;51.368;12.364;2023-03-20T06:12:40;19592.31;;;-141.84;77.85
15260;BME280;34462;51.368;12.364;2023-03-20T06:15:09;19598.41;;;-141.84;78.58
15260;BME280;34462;51.368;12.364;2023-03-20T06:17:38;19576.06;;;-141.84;78.99
15260;BME280;34462;51.368;12.364;2023-03-20T06:20:08;19578.09;;;-141.84;79.38
15260;BME280;34462;51.368;12.364;2023-03-20T06:22:36;19588.25;;;-141.84;79.21
15260;BME280;34462;51.368;12.364;2023-03-20T06:25:06;19606.53;;;-141.84;78.75
15260;BME280;34462;51.368;12.364;2023-03-20T06:27:36;19616.72;;;-141.84;77.81
15260;BME280;34462;51.368;12.364;2023-03-20T06:30:05;19590.28;;;-141.84;77.32
15260;BME280;34462;51.368;12.364;2023-03-20T06:32:34;19598.41;;;-141.84;77.30
15260;BME280;34462;51.368;12.364;2023-03-20T06:35:02;19604.50;;;-141.84;77.50
15260;BME280;34462;51.368;12.364;2023-03-20T06:37:32;19620.78;;;-141.84;77.69
15260;BME280;34462;51.368;12.364;2023-03-20T06:40:00;19616.72;;;-141.84;77.62
15260;BME280;34462;51.368;12.364;2023-03-20T06:42:28;19616.72;;;-141.84;77.70
15260;BME280;34462;51.368;12.364;2023-03-20T06:44:58;19582.16;;;-141.84;78.20
15260;BME280;34462;51.368;12.364;2023-03-20T06:47:26;19590.28;;;-141.84;78.80
15260;BME280;34462;51.368;12.364;2023-03-20T06:49:54;19574.03;;;-141.84;78.96
15260;BME280;34462;51.368;12.364;2023-03-20T06:52:22;19602.47;;;-141.84;79.05
15260;BME280;34462;51.368;12.364;2023-03-20T06:54:51;19569.97;;;-141.84;78.86
15260;BME280;34462;51.368;12.364;2023-03-20T06:57:19;19576.06;;;-141.84;78.85
15260;BME280;34462;51.368;12.364;2023-03-20T06:59:47;19586.22;;;-141.84;78.77
15260;BME280;34462;51.368;12.364;2023-03-20T07:02:17;19590.28;;;-141.84;78.57
15260;BME280;34462;51.368;12.364;2023-03-20T07:04:45;19624.84;;;-141.84;78.06
15260;BME280;34462;51.368;12.364;2023-03-20T07:07:13;19616.72;;;-141.84;77.98
15260;BME280;34462;51.368;12.364;2023-03-20T07:09:42;19635.00;;;-141.84;78.11
15260;BME280;34462;51.368;12.364;2023-03-20T07:12:13;19671.56;;;-141.84;77.14
15260;BME280;34462;51.368;12.364;2023-03-20T07:14:42;19639.06;;;-141.84;76.94
15260;BME280;34462;51.368;12.364;2023-03-20T07:17:11;19671.56;;;-141.84;76.21
15260;BME280;34462;51.368;12.364;2023-03-20T07:19:40;19712.22;;;-141.84;75.76
15260;BME280;34462;51.368;12.364;2023-03-20T07:22:19;19632.97;;;-141.84;76.30
15260;BME280;34462;51.368;12.364;2023-03-20T07:24:48;19687.84;;;-141.84;76.52
15260;BME280;34462;51.368;12.364;2023-03-20T07:27:17;19671.56;;;-141.84;76.68
15260;BME280;34462;51.368;12.364;2023-03-20T07:29:45;19679.72;;;-141.84;77.11
15260;BME280;34462;51.368;12.364;2023-03-20T07:32:14;19679.72;;;-141.84;77.18
15260;BME280;34462;51.368;12.364;2023-03-20T07:34:44;19665.47;;;-141.84;77.53
15260;BME280;34462;51.368;12.364;2023-03-20T07:37:13;19653.28;;;-141.84;77.85
15260;BME280;34462;51.368;12.364;2023-03-20T07:39:41;19618.75;;;-141.84;78.11
15260;BME280;34462;51.368;12.364;2023-03-20T07:42:09;19643.13;;;-141.84;78.01
15260;BME280;34462;51.368;12.364;2023-03-20T07:44:39;19649.22;;;-141.84;77.69
15260;BME280;34462;51.368;12.364;2023-03-20T07:47:07;19663.44;;;-141.84;77.40
15260;BME280;34462;51.368;12.364;2023-03-20T07:49:36;19675.63;;;-141.84;77.62
15260;BME280;34462;51.368;12.364;2023-03-20T07:52:05;19677.66;;;-141.84;78.03
15260;BME280;34462;51.368;12.364;2023-03-20T07:54:34;19695.97;;;-141.84;77.94
15260;BME280;34462;51.368;12.364;2023-03-20T07:57:02;19687.84;;;-141.84;77.17
15260;BME280;34462;51.368;12.364;2023-03-20T07:59:31;19765.06;;;-141.84;75.01
15260;BME280;34462;51.368;12.364;2023-03-20T08:01:59;19763.03;;;-141.84;75.77
15260;BME280;34462;51.368;12.364;2023-03-20T08:04:27;19734.56;;;-141.84;75.89
15260;BME280;34462;51.368;12.364;2023-03-20T08:06:56;19750.84;;;-141.84;75.72
15260;BME280;34462;51.368;12.364;2023-03-20T08:09:25;19754.91;;;-141.84;75.04
15260;BME280;34462;51.368;12.364;2023-03-20T08:11:53;19785.38;;;-141.84;74.02
15260;BME280;34462;51.368;12.364;2023-03-20T08:14:22;19777.25;;;-141.84;74.19
15260;BME280;34462;51.368;12.364;2023-03-20T08:16:50;19824.00;;;-141.84;73.36
15260;BME280;34462;51.368;12.364;2023-03-20T08:19:38;19799.63;;;-141.84;73.77
15260;BME280;34462;51.368;12.364;2023-03-20T08:22:06;19854.50;;;-141.84;73.02
15260;BME280;34462;51.368;12.364;2023-03-20T08:24:36;19848.38;;;-141.84;73.40
15260;BME280;34462;51.368;12.364;2023-03-20T08:27:04;19856.53;;;-141.84;73.54
15260;BME280;34462;51.368;12.364;2023-03-20T08:29:33;19866.69;;;-141.84;71.81
15260;BME280;34462;51.368;12.364;2023-03-20T08:32:01;19923.59;;;-141.84;71.15
15260;BME280;34462;51.368;12.364;2023-03-20T08:34:30;19915.47;;;-141.84;70.35
15260;BME280;34462;51.368;12.364;2023-03-20T08:36:59;19903.25;;;-141.84;71.14
15260;BME280;34462;51.368;12.364;2023-03-20T08:39:29;19933.75;;;-141.84;70.96
15260;BME280;34462;51.368;12.364;2023-03-20T08:42:00;19956.09;;;-141.84;68.50
15260;BME280;34462;51.368;12.364;2023-03-20T08:44:28;19964.25;;;-141.84;68.05
15260;BME280;34462;51.368;12.364;2023-03-20T08:46:57;19994.72;;;-141.84;66.85
15260;BME280;34462;51.368;12.364;2023-03-20T08:49:25;19950.00;;;-141.84;68.61
15260;BME280;34462;51.368;12.364;2023-03-20T08:51:53;19903.25;;;-141.84;69.73
15260;BME280;34462;51.368;12.364;2023-03-20T08:54:22;19899.19;;;-141.84;69.82
15260;BME280;34462;51.368;12.364;2023-03-20T08:56:50;19854.50;;;-141.84;70.60
15260;BME280;34462;51.368;12.364;2023-03-20T08:59:20;19813.84;;;-141.84;71.64
15260;BME280;34462;51.368;12.364;2023-03-20T09:01:48;19834.16;;;-141.84;71.77
15260;BME280;34462;51.368;12.364;2023-03-20T09:04:17;19872.78;;;-141.84;71.84
15260;BME280;34462;51.368;12.364;2023-03-20T09:06:47;19864.66;;;-141.84;70.75
15260;BME280;34462;51.368;12.364;2023-03-20T09:09:16;19889.03;;;-141.84;71.00
15260;BME280;34462;51.368;12.364;2023-03-20T09:11:45;19872.78;;;-141.84;71.38
15260;BME280;34462;51.368;12.364;2023-03-20T09:14:14;19856.53;;;-141.84;71.38
15260;BME280;34462;51.368;12.364;2023-03-20T09:16:43;19793.50;;;-141.84;72.09
15260;BME280;34462;51.368;12.364;2023-03-20T09:19:11;19819.94;;;-141.84;72.55
15260;BME280;34462;51.368;12.364;2023-03-20T09:21:39;19797.59;;;-141.84;72.04
15260;BME280;34462;51.368;12.364;2023-03-20T09:24:08;19805.72;;;-141.84;72.36
15260;BME280;34462;51.368;12.364;2023-03-20T09:26:37;19795.53;;;-141.84;72.85
15260;BME280;34462;51.368;12.364;2023-03-20T09:29:05;19761.00;;;-141.84;73.68
15260;BME280;34462;51.368;12.364;2023-03-20T09:31:33;19748.81;;;-141.84;73.62
15260;BME280;34462;51.368;12.364;2023-03-20T09:34:03;19710.19;;;-141.84;74.84
15260;BME280;34462;51.368;12.364;2023-03-20T09:36:32;19716.28;;;-141.84;75.74
15260;BME280;34462;51.368;12.364;2023-03-20T09:39:00;19724.41;;;-141.84;76.03
15260;BME280;34462;51.368;12.364;2023-03-20T09:41:28;19746.78;;;-141.84;75.41
15260;BME280;34462;51.368;12.364;2023-03-20T09:44:42;19712.22;;;-141.84;76.12
15260;BME280;34462;51.368;12.364;2023-03-20T09:47:20;19714.25;;;-141.84;76.75
15260;BME280;34462;51.368;12.364;2023-03-20T09:50:10;19712.22;;;-141.84;76.67
15260;BME280;34462;51.368;12.364;2023-03-20T09:52:45;19740.69;;;-141.84;76.33
15260;BME280;34462;51.368;12.364;2023-03-20T09:55:21;19720.34;;;-141.84;76.36
15260;BME280;34462;51.368;12.364;2023-03-20T09:57:55;19718.31;;;-141.84;75.56
15260;BME280;34462;51.368;12.364;2023-03-20T10:00:28;19738.66;;;-141.84;75.56
15260;BME280;34462;51.368;12.364;2023-03-20T10:03:01;19718.31;;;-141.84;75.45
15260;BME280;34462;51.368;12.364;2023-03-20T10:05:37;19736.59;;;-141.84;74.72
15260;BME280;34462;51.368;12.364;2023-03-20T10:08:12;19726.44;;;-141.84;75.26
15260;BME280;34462;51.368;12.364;2023-03-20T10:10:51;19720.34;;;-141.84;75.52
15260;BME280;34462;51.368;12.364;2023-03-20T10:13:54;19754.91;;;-141.84;75.00
15260;BME280;34462;51.368;12.364;2023-03-20T10:16:40;19748.81;;;-141.84;75.18
15260;BME280;34462;51.368;12.364;2023-03-20T10:19:21;19728.47;;;-141.84;75.10
15260;BME280;34462;51.368;12.364;2023-03-20T10:22:00;19777.25;;;-141.84;75.23
15260;BME280;34462;51.368;12.364;2023-03-20T10:24:35;19789.44;;;-141.84;75.63
15260;BME280;34462;51.368;12.364;2023-03-20T10:27:17;19761.00;;;-141.84;75.19
15260;BME280;34462;51.368;12.364;2023-03-20T10:30:02;19761.00;;;-141.84;75.34
15260;BME280;34462;51.368;12.364;2023-03-20T10:32:40;19756.94;;;-141.84;75.86
15260;BME280;34462;51.368;12.364;2023-03-20T10:35:20;19761.00;;;-141.84;75.80
15260;BME280;34462;51.368;12.364;2023-03-20T10:38:09;19795.53;;;-141.84;75.24
15260;BME280;34462;51.368;12.364;2023-03-20T10:40:41;19748.81;;;-141.84;75.50
15260;BME280;34462;51.368;12.364;2023-03-20T10:43:17;19744.75;;;-141.84;75.83
15260;BME280;34462;51.368;12.364;2023-03-20T10:45:51;19779.28;;;-141.84;75.33
15260;BME280;34462;51.368;12.364;2023-03-20T10:48:28;19744.75;;;-141.84;75.91
15260;BME280;34462;51.368;12.364;2023-03-20T10:51:00;19769.13;;;-141.84;76.09
15260;BME280;34462;51.368;12.364;2023-03-20T10:53:36;19756.94;;;-141.84;76.10
15260;BME280;34462;51.368;12.364;2023-03-20T10:56:14;19756.94;;;-141.84;76.18
15260;BME280;34462;51.368;12.364;2023-03-20T10:58:46;19765.06;;;-141.84;76.30
15260;BME280;34462;51.368;12.364;2023-03-20T11:01:15;19744.75;;;-141.84;76.51
15260;BME280;34462;51.368;12.364;2023-03-20T11:03:46;19746.78;;;-141.84;75.82
15260;BME280;34462;51.368;12.364;2023-03-20T11:06:19;19704.09;;;-141.84;76.40
15260;BME280;34462;51.368;12.364;2023-03-20T11:08:51;19754.91;;;-141.84;76.70
15260;BME280;34462;51.368;12.364;2023-03-20T11:11:25;19724.41;;;-141.84;76.74
15260;BME280;34462;51.368;12.364;2023-03-20T11:13:54;19712.22;;;-141.84;77.12
15260;BME280;34462;51.368;12.364;2023-03-20T11:16:28;19665.47;;;-141.84;77.33
15260;BME280;34462;51.368;12.364;2023-03-20T11:19:05;19657.34;;;-141.84;77.44
15260;BME280;34462;51.368;12.364;2023-03-20T11:21:44;19712.22;;;-141.84;77.74
15260;BME280;34462;51.368;12.364;2023-03-20T11:24:26;19689.88;;;-141.84;77.97
15260;BME280;34462;51.368;12.364;2023-03-20T11:27:06;19679.72;;;-141.84;78.45
15260;BME280;34462;51.368;12.364;2023-03-20T11:29:36;19663.44;;;-141.84;79.17
15260;BME280;34462;51.368;12.364;2023-03-20T11:32:12;19677.66;;;-141.84;79.87
15260;BME280;34462;51.368;12.364;2023-03-20T11:34:43;19655.31;;;-141.84;80.74
15260;BME280;34462;51.368;12.364;2023-03-20T11:37:23;19661.41;;;-141.84;82.05
15260;BME280;34462;51.368;12.364;2023-03-20T11:39:57;19653.28;;;-141.84;82.45
15260;BME280;34462;51.368;12.364;2023-03-20T11:42:28;19685.81;;;-141.84;82.67
15260;BME280;34462;51.368;12.364;2023-03-20T11:45:00;19695.97;;;-141.84;82.47
15260;BME280;34462;51.368;12.364;2023-03-20T11:47:33;19653.28;;;-141.84;82.45
15260;BME280;34462;51.368;12.364;2023-03-20T11:50:05;19698.00;;;-141.84;82.38
15260;BME280;34462;51.368;12.364;2023-03-20T11:52:36;19671.56;;;-141.84;81.98
15260;BME280;34462;51.368;12.364;2023-03-20T11:55:24;19708.16;;;-141.84;80.62
15260;BME280;34462;51.368;12.364;2023-03-20T11:57:59;19698.00;;;-141.84;81.07
15260;BME280;34462;51.368;12.364;2023-03-20T12:00:34;19673.59;;;-141.84;81.10
15260;BME280;34462;51.368;12.364;2023-03-20T12:03:40;19781.31;;;-141.84;80.16
15260;BME280;34462;51.368;12.364;2023-03-20T12:06:17;19736.59;;;-141.84;78.75
15260;BME280;34462;51.368;12.364;2023-03-20T12:08:52;19742.72;;;-141.84;78.27
15260;BME280;34462;51.368;12.364;2023-03-20T12:11:42;19744.75;;;-141.84;78.34
15260;BME280;34462;51.368;12.364;2023-03-20T12:14:22;19746.78;;;-141.84;78.05
15260;BME280;34462;51.368;12.364;2023-03-20T12:17:07;19777.25;;;-141.84;78.48
15260;BME280;34462;51.368;12.364;2023-03-20T12:19:39;19769.13;;;-141.84;77.64
15260;BME280;34462;51.368;12.364;2023-03-20T12:22:18;19740.69;;;-141.84;78.17
15260;BME280;34462;51.368;12.364;2023-03-20T12:24:57;19765.06;;;-141.84;78.31
15260;BME280;34462;51.368;12.364;2023-03-20T12:27:35;19728.47;;;-141.84;78.85
15260;BME280;34462;51.368;12.364;2023-03-20T12:30:12;19754.91;;;-141.84;78.68
15260;BME280;34462;51.368;12.364;2023-03-20T12:32:51;19781.31;;;-141.84;78.33
15260;BME280;34462;51.368;12.364;2023-03-20T12:35:27;19740.69;;;-141.84;77.50
15260;BME280;34462;51.368;12.364;2023-03-20T12:37:56;19752.88;;;-141.84;77.51
15260;BME280;34462;51.368;12.364;2023-03-20T12:40:38;19779.28;;;-141.84;77.64
15260;BME280;34462;51.368;12.364;2023-03-20T12:43:17;19783.34;;;-141.84;76.98
15260;BME280;34462;51.368;12.364;2023-03-20T12:45:56;19756.94;;;-141.84;77.67
15260;BME280;34462;51.368;12.364;2023-03-20T12:48:47;19781.31;;;-141.84;78.12
15260;BME280;34462;51.368;12.364;2023-03-20T12:51:29;19730.50;;;-141.84;78.42
15260;BME280;34462;51.368;12.364;2023-03-20T12:54:18;19728.47;;;-141.84;78.89
15260;BME280;34462;51.368;12.364;2023-03-20T12:57:04;19736.59;;;-141.84;78.89
15260;BME280;34462;51.368;12.364;2023-03-20T12:59:50;19789.44;;;-141.84;78.12
15260;BME280;34462;51.368;12.364;2023-03-20T13:02:40;19750.84;;;-141.84;77.63
15260;BME280;34462;51.368;12.364;2023-03-20T13:05:27;19738.66;;;-141.84;78.26